sensor_id;sensor_type;location;lat;lon;timestamp;P1;P2;P0
23240;PMS7003;11789;53.482;9.862;2023-02-18T00:00:12;3.00;1.50;0.50
23240;PMS7003;11789;53.482;9.862;2023-02-18T00:02:41;5.75;2.00;0.00
23240;PMS7003;11789;53.482;9.862;2023-02-18T00:05:07;5.25;2.75;0.75
23240;PMS7003;11789;53.482;9.862;2023-02-18T00:07:33;5.75;2.00;0.50
23240;PMS7003;11789;53.482;9.862;2023-02-18T00:09:59;4.50;2.00;1.00
23240;PMS7003;11789;53.482;9.862;2023-02-18T00:12:25;4.50;1.00;0.00
23240;PMS7003;11789;53.482;9.862;2023-02-18T00:14:50;4.50;2.75;1.00
23240;PMS7003;11789;53.482;9.862;2023-02-18T00:17:16;6.00;2.25;0.25
23240;PMS7003;11789;53.482;9.862;2023-02-18T00:19:41;7.75;2.00;1.00
23240;PMS7003;11789;53.482;9.862;2023-02-18T00:22:07;3.75;2.00;0.00
23240;PMS7003;11789;53.482;9.862;2023-02-18T00:24:32;1.25;1.25;0.00
23240;PMS7003;11789;53.482;9.862;2023-02-18T00:26:57;4.00;1.00;1.00
23240;PMS7003;11789;53.482;9.862;2023-02-18T00:29:23;5.00;2.00;1.00
23240;PMS7003;11789;53.482;9.862;2023-02-18T00:31:48;6.50;3.00;2.00
23240;PMS7003;11789;53.482;9.862;2023-02-18T00:34:14;5.00;2.00;1.00
23240;PMS7003;11789;53.482;9.862;2023-02-18T00:36:39;3.50;1.00;0.25
23240;PMS7003;11789;53.482;9.862;2023-02-18T00:39:06;4.75;2.00;0.00
23240;PMS7003;11789;53.482;9.862;2023-02-18T00:41:33;3.50;1.25;0.00
23240;PMS7003;11789;53.482;9.862;2023-02-18T00:43:59;2.25;2.25;1.00
23240;PMS7003;11789;53.482;9.862;2023-02-18T00:46:25;5.00;2.00;0.00
23240;PMS7003;11789;53.482;9.862;2023-02-18T00:48:52;2.75;2.25;1.00
23240;PMS7003;11789;53.482;9.862;2023-02-18T00:51:18;7.00;0.75;0.00
23240;PMS7003;11789;53.482;9.862;2023-02-18T00:53:44;9.25;3.75;0.25
23240;PMS7003;11789;53.482;9.862;2023-02-18T00:56:09;5.00;1.25;0.00
23240;PMS7003;11789;53.482;9.862;2023-02-18T00:58:35;5.50;3.00;1.00
23240;PMS7003;11789;53.482;9.862;2023-02-18T01:01:01;4.00;1.00;1.00
23240;PMS7003;11789;53.482;9.862;2023-02-18T01:03:27;8.50;1.00;0.50
23240;PMS7003;11789;53.482;9.862;2023-02-18T01:05:53;3.50;2.00;1.00
23240;PMS7003;11789;53.482;9.862;2023-02-18T01:08:19;4.25;2.00;1.00
23240;PMS7003;11789;53.482;9.862;2023-02-18T01:10:46;3.00;1.25;0.50
23240;PMS7003;11789;53.482;9.862;2023-02-18T01:13:14;5.00;3.00;1.00
23240;PMS7003;11789;53.482;9.862;2023-02-18T01:15:40;4.75;1.50;1.00
23240;PMS7003;11789;53.482;9.862;2023-02-18T01:18:07;4.75;1.75;0.00
23240;PMS7003;11789;53.482;9.862;2023-02-18T01:20:34;8.50;1.00;0.00
23240;PMS7003;11789;53.482;9.862;2023-02-18T01:23:00;2.50;1.25;1.00
23240;PMS7003;11789;53.482;9.862;2023-02-18T01:25:26;5.50;1.75;1.00
23240;PMS7003;11789;53.482;9.862;2023-02-18T01:27:51;3.50;1.00;0.25
23240;PMS7003;11789;53.482;9.862;2023-02-18T01:30:17;5.25;3.00;1.00
23240;PMS7003;11789;53.482;9.862;2023-02-18T01:32:43;4.00;1.00;1.00
23240;PMS7003;11789;53.482;9.862;2023-02-18T01:35:15;6.75;1.00;0.00
23240;PMS7003;11789;53.482;9.862;2023-02-18T01:37:43;4.00;2.00;0.75
23240;PMS7003;11789;53.482;9.862;2023-02-18T01:40:09;0.75;0.75;0.00
23240;PMS7003;11789;53.482;9.862;2023-02-18T01:42:38;1.00;1.00;1.00
23240;PMS7003;11789;53.482;9.862;2023-02-18T01:50:45;1.75;1.75;0.25
23240;PMS7003;11789;53.482;9.862;2023-02-18T01:53:15;2.75;2.00;0.00
23240;PMS7003;11789;53.482;9.862;2023-02-18T01:55:44;1.75;1.00;0.00
23240;PMS7003;11789;53.482;9.862;2023-02-18T01:58:11;2.75;2.75;0.75
23240;PMS7003;11789;53.482;9.862;2023-02-18T02:00:37;8.25;1.00;0.00
23240;PMS7003;11789;53.482;9.862;2023-02-18T02:03:03;4.75;2.00;1.00
23240;PMS7003;11789;53.482;9.862;2023-02-18T02:05:30;4.50;2.00;0.75
23240;PMS7003;11789;53.482;9.862;2023-02-18T02:07:57;6.50;2.00;1.00
23240;PMS7003;11789;53.482;9.862;2023-02-18T02:10:23;2.50;2.00;1.00
23240;PMS7003;11789;53.482;9.862;2023-02-18T02:15:46;3.75;2.25;1.00
23240;PMS7003;11789;53.482;9.862;2023-02-18T02:18:28;7.00;1.00;0.00
23240;PMS7003;11789;53.482;9.862;2023-02-18T02:23:49;4.75;1.50;0.00
23240;PMS7003;11789;53.482;9.862;2023-02-18T02:31:51;4.25;2.00;1.00
23240;PMS7003;11789;53.482;9.862;2023-02-18T02:37:26;3.75;2.50;0.75
23240;PMS7003;11789;53.482;9.862;2023-02-18T02:43:05;6.00;3.00;1.00
23240;PMS7003;11789;53.482;9.862;2023-02-18T02:45:48;3.75;2.00;1.00
23240;PMS7003;11789;53.482;9.862;2023-02-18T02:53:39;7.75;2.50;1.00
23240;PMS7003;11789;53.482;9.862;2023-02-18T02:56:05;3.50;2.00;0.25
23240;PMS7003;11789;53.482;9.862;2023-02-18T02:58:31;3.75;2.00;0.00
23240;PMS7003;11789;53.482;9.862;2023-02-18T03:12:02;6.25;3.00;0.00
23240;PMS7003;11789;53.482;9.862;2023-02-18T03:14:46;2.50;1.75;0.00
23240;PMS7003;11789;53.482;9.862;2023-02-18T03:17:26;0.75;0.75;0.00
23240;PMS7003;11789;53.482;9.862;2023-02-18T03:20:00;2.25;0.25;0.00
23240;PMS7003;11789;53.482;9.862;2023-02-18T03:22:35;1.50;1.00;0.00
23240;PMS7003;11789;53.482;9.862;2023-02-18T03:25:08;3.00;1.00;0.00
23240;PMS7003;11789;53.482;9.862;2023-02-18T03:27:40;4.00;1.00;1.00
23240;PMS7003;11789;53.482;9.862;2023-02-18T03:30:21;6.75;1.25;0.25
23240;PMS7003;11789;53.482;9.862;2023-02-18T03:32:53;2.00;1.50;0.25
23240;PMS7003;11789;53.482;9.862;2023-02-18T03:35:22;3.50;1.00;0.00
23240;PMS7003;11789;53.482;9.862;2023-02-18T03:40:39;5.50;1.00;0.00
23240;PMS7003;11789;53.482;9.862;2023-02-18T03:43:05;2.75;1.00;0.25
23240;PMS7003;11789;53.482;9.862;2023-02-18T03:45:30;5.50;1.00;0.25
23240;PMS7003;11789;53.482;9.862;2023-02-18T03:47:55;5.25;2.00;1.00
23240;PMS7003;11789;53.482;9.862;2023-02-18T03:50:21;5.00;2.00;1.00
23240;PMS7003;11789;53.482;9.862;2023-02-18T03:52:46;2.75;1.00;1.00
23240;PMS7003;11789;53.482;9.862;2023-02-18T03:55:12;1.00;1.00;0.00
23240;PMS7003;11789;53.482;9.862;2023-02-18T03:57:37;6.00;1.50;0.00
23240;PMS7003;11789;53.482;9.862;2023-02-18T04:00:03;2.25;1.00;0.50
23240;PMS7003;11789;53.482;9.862;2023-02-18T04:02:31;3.00;2.00;1.00
23240;PMS7003;11789;53.482;9.862;2023-02-18T04:04:57;1.50;1.00;0.00
23240;PMS7003;11789;53.482;9.862;2023-02-18T04:07:22;2.00;1.00;0.00
23240;PMS7003;11789;53.482;9.862;2023-02-18T04:09:48;4.00;1.00;0.00
23240;PMS7003;11789;53.482;9.862;2023-02-18T04:12:13;1.75;1.00;0.00
23240;PMS7003;11789;53.482;9.862;2023-02-18T04:14:39;4.50;1.00;0.00
23240;PMS7003;11789;53.482;9.862;2023-02-18T04:17:04;4.25;1.00;0.00
23240;PMS7003;11789;53.482;9.862;2023-02-18T04:19:29;4.75;1.75;0.75
23240;PMS7003;11789;53.482;9.862;2023-02-18T04:21:55;2.00;0.50;0.00
23240;PMS7003;11789;53.482;9.862;2023-02-18T04:24:20;4.00;2.00;1.00
23240;PMS7003;11789;53.482;9.862;2023-02-18T04:26:46;4.00;1.00;0.00
23240;PMS7003;11789;53.482;9.862;2023-02-18T04:29:11;2.00;1.00;0.25
23240;PMS7003;11789;53.482;9.862;2023-02-18T04:31:37;1.50;1.00;0.00
23240;PMS7003;11789;53.482;9.862;2023-02-18T04:34:02;4.50;1.00;0.00
23240;PMS7003;11789;53.482;9.862;2023-02-18T04:36:28;3.25;1.00;0.00
23240;PMS7003;11789;53.482;9.862;2023-02-18T04:38:53;3.75;2.00;0.25
23240;PMS7003;11789;53.482;9.862;2023-02-18T04:41:19;5.25;2.00;1.25
23240;PMS7003;11789;53.482;9.862;2023-02-18T04:43:44;1.00;1.00;1.00
23240;PMS7003;11789;53.482;9.862;2023-02-18T04:46:09;3.50;2.25;2.00
23240;PMS7003;11789;53.482;9.862;2023-02-18T04:48:35;0.25;0.25;0.00
23240;PMS7003;11789;53.482;9.862;2023-02-18T04:51:01;1.50;1.50;1.00
23240;PMS7003;11789;53.482;9.862;2023-02-18T04:53:27;1.75;1.75;1.00
23240;PMS7003;11789;53.482;9.862;2023-02-18T04:55:56;2.00;0.25;0.00
23240;PMS7003;11789;53.482;9.862;2023-02-18T04:58:21;2.50;2.00;1.00
23240;PMS7003;11789;53.482;9.862;2023-02-18T05:00:47;3.00;1.50;0.50
23240;PMS7003;11789;53.482;9.862;2023-02-18T05:03:13;2.25;2.00;0.00
23240;PMS7003;11789;53.482;9.862;2023-02-18T05:05:39;2.00;1.00;0.00
23240;PMS7003;11789;53.482;9.862;2023-02-18T05:08:06;2.25;0.00;0.00
23240;PMS7003;11789;53.482;9.862;2023-02-18T05:10:32;3.50;2.00;0.00
23240;PMS7003;11789;53.482;9.862;2023-02-18T05:12:58;1.00;1.00;1.00
23240;PMS7003;11789;53.482;9.862;2023-02-18T05:15:24;2.00;2.00;1.00
23240;PMS7003;11789;53.482;9.862;2023-02-18T05:17:49;1.25;0.75;0.00
23240;PMS7003;11789;53.482;9.862;2023-02-18T05:20:15;1.50;1.00;0.50
23240;PMS7003;11789;53.482;9.862;2023-02-18T05:22:40;3.25;0.50;0.00
23240;PMS7003;11789;53.482;9.862;2023-02-18T05:25:07;1.25;1.25;0.75
23240;PMS7003;11789;53.482;9.862;2023-02-18T05:27:33;4.00;1.00;0.75
23240;PMS7003;11789;53.482;9.862;2023-02-18T05:29:58;3.25;1.00;0.00
23240;PMS7003;11789;53.482;9.862;2023-02-18T05:32:24;1.00;1.00;0.75
23240;PMS7003;11789;53.482;9.862;2023-02-18T05:34:49;1.00;1.00;0.75
23240;PMS7003;11789;53.482;9.862;2023-02-18T05:37:14;5.00;1.25;0.00
23240;PMS7003;11789;53.482;9.862;2023-02-18T05:39:42;1.00;1.00;0.75
23240;PMS7003;11789;53.482;9.862;2023-02-18T05:42:08;2.75;2.00;1.00
23240;PMS7003;11789;53.482;9.862;2023-02-18T05:44:34;2.00;0.25;0.00
23240;PMS7003;11789;53.482;9.862;2023-02-18T05:47:01;3.50;1.00;0.00
23240;PMS7003;11789;53.482;9.862;2023-02-18T05:49:28;0.00;0.00;0.00
23240;PMS7003;11789;53.482;9.862;2023-02-18T05:51:54;2.75;1.00;0.00
23240;PMS7003;11789;53.482;9.862;2023-02-18T05:54:20;2.50;2.00;0.00
23240;PMS7003;11789;53.482;9.862;2023-02-18T05:56:46;1.50;0.25;0.00
23240;PMS7003;11789;53.482;9.862;2023-02-18T05:59:12;2.50;0.00;0.00
23240;PMS7003;11789;53.482;9.862;2023-02-18T06:01:37;0.50;0.00;0.00
23240;PMS7003;11789;53.482;9.862;2023-02-18T06:04:03;2.00;0.00;0.00
23240;PMS7003;11789;53.482;9.862;2023-02-18T06:06:29;3.25;1.00;1.00
23240;PMS7003;11789;53.482;9.862;2023-02-18T06:08:54;2.00;2.00;1.00
23240;PMS7003;11789;53.482;9.862;2023-02-18T06:11:20;2.00;0.00;0.00
23240;PMS7003;11789;53.482;9.862;2023-02-18T06:13:45;2.25;1.00;0.00
23240;PMS7003;11789;53.482;9.862;2023-02-18T06:16:11;0.00;0.00;0.00
23240;PMS7003;11789;53.482;9.862;2023-02-18T06:18:36;1.75;1.00;0.25
23240;PMS7003;11789;53.482;9.862;2023-02-18T06:21:02;0.00;0.00;0.00
23240;PMS7003;11789;53.482;9.862;2023-02-18T06:23:28;2.00;1.50;0.25
23240;PMS7003;11789;53.482;9.862;2023-02-18T06:25:53;2.00;0.00;0.00
23240;PMS7003;11789;53.482;9.862;2023-02-18T06:28:19;0.25;0.25;0.00
23240;PMS7003;11789;53.482;9.862;2023-02-18T06:30:45;0.25;0.25;0.00
23240;PMS7003;11789;53.482;9.862;2023-02-18T06:33:10;2.00;2.00;1.00
23240;PMS7003;11789;53.482;9.862;2023-02-18T06:35:36;2.50;1.25;1.00
23240;PMS7003;11789;53.482;9.862;2023-02-18T06:38:02;1.00;0.75;0.50
23240;PMS7003;11789;53.482;9.862;2023-02-18T06:40:27;6.50;0.75;0.25
23240;PMS7003;11789;53.482;9.862;2023-02-18T06:42:53;1.00;1.00;0.75
23240;PMS7003;11789;53.482;9.862;2023-02-18T06:45:19;1.75;1.75;1.00
23240;PMS7003;11789;53.482;9.862;2023-02-18T06:47:45;0.75;0.75;0.75
23240;PMS7003;11789;53.482;9.862;2023-02-18T06:50:10;8.75;2.75;0.75
23240;PMS7003;11789;53.482;9.862;2023-02-18T06:52:36;4.50;2.75;1.00
23240;PMS7003;11789;53.482;9.862;2023-02-18T06:55:03;1.00;1.00;0.00
23240;PMS7003;11789;53.482;9.862;2023-02-18T06:57:30;2.00;1.00;0.25
23240;PMS7003;11789;53.482;9.862;2023-02-18T06:59:55;1.25;1.00;0.00
23240;PMS7003;11789;53.482;9.862;2023-02-18T07:02:21;1.50;1.00;0.75
23240;PMS7003;11789;53.482;9.862;2023-02-18T07:04:46;2.50;2.00;0.50
23240;PMS7003;11789;53.482;9.862;2023-02-18T07:07:12;1.00;1.00;1.00
23240;PMS7003;11789;53.482;9.862;2023-02-18T07:09:37;1.25;1.00;1.00
23240;PMS7003;11789;53.482;9.862;2023-02-18T07:12:03;4.75;3.25;1.00
23240;PMS7003;11789;53.482;9.862;2023-02-18T07:14:28;3.00;2.00;1.25
23240;PMS7003;11789;53.482;9.862;2023-02-18T07:16:54;3.25;1.00;1.00
23240;PMS7003;11789;53.482;9.862;2023-02-18T07:19:19;1.75;1.00;0.25
23240;PMS7003;11789;53.482;9.862;2023-02-18T07:21:44;5.00;1.00;1.00
23240;PMS7003;11789;53.482;9.862;2023-02-18T07:24:10;4.25;1.50;1.00
23240;PMS7003;11789;53.482;9.862;2023-02-18T07:26:35;2.75;2.50;1.00
23240;PMS7003;11789;53.482;9.862;2023-02-18T07:29:01;4.00;2.00;1.00
23240;PMS7003;11789;53.482;9.862;2023-02-18T07:31:26;2.00;2.00;1.00
23240;PMS7003;11789;53.482;9.862;2023-02-18T07:33:52;5.50;3.00;1.75
23240;PMS7003;11789;53.482;9.862;2023-02-18T07:36:17;1.50;1.50;1.00
23240;PMS7003;11789;53.482;9.862;2023-02-18T07:38:43;2.00;2.00;1.00
23240;PMS7003;11789;53.482;9.862;2023-02-18T07:41:16;4.00;1.00;1.00
23240;PMS7003;11789;53.482;9.862;2023-02-18T07:43:43;0.00;0.00;0.00
23240;PMS7003;11789;53.482;9.862;2023-02-18T07:46:09;3.25;2.00;1.00
23240;PMS7003;11789;53.482;9.862;2023-02-18T07:48:35;2.00;1.00;1.00
23240;PMS7003;11789;53.482;9.862;2023-02-18T07:51:00;41.25;29.50;16.50
23240;PMS7003;11789;53.482;9.862;2023-02-18T07:53:30;90.67;74.00;34.33
23240;PMS7003;11789;53.482;9.862;2023-02-18T07:55:57;119.75;95.75;42.75
23240;PMS7003;11789;53.482;9.862;2023-02-18T07:58:28;17.00;14.00;8.75
23240;PMS7003;11789;53.482;9.862;2023-02-18T08:00:55;20.25;15.25;9.00
23240;PMS7003;11789;53.482;9.862;2023-02-18T08:03:26;17.00;12.75;10.00
23240;PMS7003;11789;53.482;9.862;2023-02-18T08:05:53;12.75;8.25;5.75
23240;PMS7003;11789;53.482;9.862;2023-02-18T08:08:22;12.50;10.00;8.00
23240;PMS7003;11789;53.482;9.862;2023-02-18T08:10:50;8.50;4.50;3.50
23240;PMS7003;11789;53.482;9.862;2023-02-18T08:13:16;3.50;2.00;1.00
23240;PMS7003;11789;53.482;9.862;2023-02-18T08:15:41;2.50;1.75;1.00
23240;PMS7003;11789;53.482;9.862;2023-02-18T08:18:07;1.50;1.50;1.00
23240;PMS7003;11789;53.482;9.862;2023-02-18T08:20:38;4.25;1.25;1.00
23240;PMS7003;11789;53.482;9.862;2023-02-18T08:23:04;3.00;3.00;2.00
23240;PMS7003;11789;53.482;9.862;2023-02-18T08:25:30;6.00;6.00;4.00
23240;PMS7003;11789;53.482;9.862;2023-02-18T08:27:56;7.50;5.25;4.00
23240;PMS7003;11789;53.482;9.862;2023-02-18T08:30:21;8.75;7.25;5.00
23240;PMS7003;11789;53.482;9.862;2023-02-18T08:32:47;11.00;5.25;5.00
23240;PMS7003;11789;53.482;9.862;2023-02-18T08:35:12;11.00;9.50;7.00
23240;PMS7003;11789;53.482;9.862;2023-02-18T08:37:38;10.50;8.00;5.00
23240;PMS7003;11789;53.482;9.862;2023-02-18T08:40:04;8.50;5.00;4.00
23240;PMS7003;11789;53.482;9.862;2023-02-18T08:42:30;5.50;5.00;4.00
23240;PMS7003;11789;53.482;9.862;2023-02-18T08:44:55;4.50;3.25;2.50
23240;PMS7003;11789;53.482;9.862;2023-02-18T08:47:21;3.75;3.00;2.75
23240;PMS7003;11789;53.482;9.862;2023-02-18T08:49:46;7.50;3.75;3.00
23240;PMS7003;11789;53.482;9.862;2023-02-18T08:52:12;9.00;6.00;4.00
23240;PMS7003;11789;53.482;9.862;2023-02-18T08:54:37;9.00;5.00;3.50
23240;PMS7003;11789;53.482;9.862;2023-02-18T08:57:03;7.50;7.00;5.00
23240;PMS7003;11789;53.482;9.862;2023-02-18T08:59:28;6.25;6.25;3.25
23240;PMS7003;11789;53.482;9.862;2023-02-18T09:01:53;8.50;5.50;3.75
23240;PMS7003;11789;53.482;9.862;2023-02-18T09:04:19;8.50;6.25;4.00
23240;PMS7003;11789;53.482;9.862;2023-02-18T09:06:45;5.75;5.75;5.00
23240;PMS7003;11789;53.482;9.862;2023-02-18T09:09:11;8.50;6.50;4.50
23240;PMS7003;11789;53.482;9.862;2023-02-18T09:11:37;9.50;8.25;4.75
23240;PMS7003;11789;53.482;9.862;2023-02-18T09:14:03;9.00;8.50;4.00
23240;PMS7003;11789;53.482;9.862;2023-02-18T09:16:28;6.50;6.50;4.50
23240;PMS7003;11789;53.482;9.862;2023-02-18T09:18:54;8.25;8.25;5.00
23240;PMS7003;11789;53.482;9.862;2023-02-18T09:21:21;5.25;5.00;4.00
23240;PMS7003;11789;53.482;9.862;2023-02-18T09:23:47;5.75;5.75;4.50
23240;PMS7003;11789;53.482;9.862;2023-02-18T09:26:15;8.50;8.50;5.00
23240;PMS7003;11789;53.482;9.862;2023-02-18T09:28:42;8.00;8.00;5.00
23240;PMS7003;11789;53.482;9.862;2023-02-18T09:31:12;7.50;7.50;5.75
23240;PMS7003;11789;53.482;9.862;2023-02-18T09:33:41;8.25;6.25;5.00
23240;PMS7003;11789;53.482;9.862;2023-02-18T09:36:11;11.25;10.00;6.25
23240;PMS7003;11789;53.482;9.862;2023-02-18T09:38:37;11.00;9.50;5.00
23240;PMS7003;11789;53.482;9.862;2023-02-18T09:41:04;7.75;7.75;5.75
23240;PMS7003;11789;53.482;9.862;2023-02-18T09:43:42;11.25;8.75;5.50
23240;PMS7003;11789;53.482;9.862;2023-02-18T09:46:16;10.50;10.50;6.00
23240;PMS7003;11789;53.482;9.862;2023-02-18T09:48:46;7.50;6.00;6.00
23240;PMS7003;11789;53.482;9.862;2023-02-18T09:51:13;10.25;7.50;5.75
23240;PMS7003;11789;53.482;9.862;2023-02-18T09:53:40;10.75;9.00;6.50
23240;PMS7003;11789;53.482;9.862;2023-02-18T09:56:08;11.50;6.00;5.00
23240;PMS7003;11789;53.482;9.862;2023-02-18T09:58:37;9.00;9.00;5.00
23240;PMS7003;11789;53.482;9.862;2023-02-18T10:01:04;11.25;7.00;6.00
23240;PMS7003;11789;53.482;9.862;2023-02-18T10:03:42;10.25;8.25;5.75
23240;PMS7003;11789;53.482;9.862;2023-02-18T10:06:16;6.75;6.75;4.75
23240;PMS7003;11789;53.482;9.862;2023-02-18T10:08:54;9.00;9.00;5.00
23240;PMS7003;11789;53.482;9.862;2023-02-18T10:13:52;5.25;5.25;4.00
23240;PMS7003;11789;53.482;9.862;2023-02-18T10:16:18;3.50;3.50;3.00
23240;PMS7003;11789;53.482;9.862;2023-02-18T10:18:47;5.00;5.00;4.00
23240;PMS7003;11789;53.482;9.862;2023-02-18T10:21:15;5.50;3.75;3.00
23240;PMS7003;11789;53.482;9.862;2023-02-18T10:23:49;6.75;6.75;5.00
23240;PMS7003;11789;53.482;9.862;2023-02-18T10:26:34;7.50;6.50;4.75
23240;PMS7003;11789;53.482;9.862;2023-02-18T10:29:01;7.25;5.50;4.25
23240;PMS7003;11789;53.482;9.862;2023-02-18T10:36:45;8.75;8.75;6.00
23240;PMS7003;11789;53.482;9.862;2023-02-18T10:42:00;9.00;7.00;5.50
23240;PMS7003;11789;53.482;9.862;2023-02-18T10:47:32;7.50;7.50;6.00
23240;PMS7003;11789;53.482;9.862;2023-02-18T10:53:13;7.25;7.25;5.00
23240;PMS7003;11789;53.482;9.862;2023-02-18T10:55:57;8.00;7.00;5.00
23240;PMS7003;11789;53.482;9.862;2023-02-18T10:58:24;9.00;9.00;5.00
23240;PMS7003;11789;53.482;9.862;2023-02-18T11:00:59;8.00;6.00;5.00
23240;PMS7003;11789;53.482;9.862;2023-02-18T11:03:51;6.00;6.00;4.25
23240;PMS7003;11789;53.482;9.862;2023-02-18T11:09:27;3.50;2.00;1.25
23240;PMS7003;11789;53.482;9.862;2023-02-18T11:14:50;1.00;1.00;1.00
23240;PMS7003;11789;53.482;9.862;2023-02-18T11:17:29;0.50;0.25;0.25
23240;PMS7003;11789;53.482;9.862;2023-02-18T11:19:57;0.25;0.25;0.00
23240;PMS7003;11789;53.482;9.862;2023-02-18T11:22:34;0.75;0.75;0.75
23240;PMS7003;11789;53.482;9.862;2023-02-18T11:25:18;0.25;0.25;0.25
23240;PMS7003;11789;53.482;9.862;2023-02-18T11:28:05;0.00;0.00;0.00
23240;PMS7003;11789;53.482;9.862;2023-02-18T11:30:49;0.00;0.00;0.00
23240;PMS7003;11789;53.482;9.862;2023-02-18T11:33:23;0.00;0.00;0.00
23240;PMS7003;11789;53.482;9.862;2023-02-18T11:35:54;0.00;0.00;0.00
23240;PMS7003;11789;53.482;9.862;2023-02-18T11:38:34;0.25;0.25;0.00
23240;PMS7003;11789;53.482;9.862;2023-02-18T11:41:08;0.00;0.00;0.00
23240;PMS7003;11789;53.482;9.862;2023-02-18T11:43:36;0.00;0.00;0.00
23240;PMS7003;11789;53.482;9.862;2023-02-18T11:46:09;0.00;0.00;0.00
23240;PMS7003;11789;53.482;9.862;2023-02-18T11:48:39;0.00;0.00;0.00
23240;PMS7003;11789;53.482;9.862;2023-02-18T11:51:05;2.00;0.00;0.00
23240;PMS7003;11789;53.482;9.862;2023-02-18T11:56:24;0.00;0.00;0.00
23240;PMS7003;11789;53.482;9.862;2023-02-18T11:58:51;0.00;0.00;0.00
23240;PMS7003;11789;53.482;9.862;2023-02-18T12:01:24;0.00;0.00;0.00
23240;PMS7003;11789;53.482;9.862;2023-02-18T12:03:57;0.00;0.00;0.00
23240;PMS7003;11789;53.482;9.862;2023-02-18T12:06:40;0.00;0.00;0.00
23240;PMS7003;11789;53.482;9.862;2023-02-18T12:09:24;0.00;0.00;0.00
23240;PMS7003;11789;53.482;9.862;2023-02-18T12:11:55;1.25;0.00;0.00
23240;PMS7003;11789;53.482;9.862;2023-02-18T12:14:24;1.50;0.00;0.00
23240;PMS7003;11789;53.482;9.862;2023-02-18T12:22:28;0.25;0.00;0.00
23240;PMS7003;11789;53.482;9.862;2023-02-18T12:27:52;1.50;0.00;0.00
23240;PMS7003;11789;53.482;9.862;2023-02-18T12:33:27;1.00;0.00;0.00
23240;PMS7003;11789;53.482;9.862;2023-02-18T13:06:29;1.75;1.75;1.25
23240;PMS7003;11789;53.482;9.862;2023-02-18T13:12:20;4.00;2.00;1.00
23240;PMS7003;11789;53.482;9.862;2023-02-18T13:14:58;3.75;3.75;2.75
23240;PMS7003;11789;53.482;9.862;2023-02-18T13:17:30;9.00;3.00;1.25
23240;PMS7003;11789;53.482;9.862;2023-02-18T13:20:12;3.00;2.75;2.00
23240;PMS7003;11789;53.482;9.862;2023-02-18T13:22:38;3.00;3.00;1.00
23240;PMS7003;11789;53.482;9.862;2023-02-18T13:25:05;4.00;4.00;2.00
23240;PMS7003;11789;53.482;9.862;2023-02-18T13:30:27;4.50;2.50;2.00
23240;PMS7003;11789;53.482;9.862;2023-02-18T13:33:08;5.50;5.25;3.50
23240;PMS7003;11789;53.482;9.862;2023-02-18T13:36:12;4.50;2.00;1.00
23240;PMS7003;11789;53.482;9.862;2023-02-18T13:41:09;4.75;3.00;2.00
23240;PMS7003;11789;53.482;9.862;2023-02-18T13:43:35;4.00;2.00;1.25
23240;PMS7003;11789;53.482;9.862;2023-02-18T13:48:46;5.50;2.75;2.00
23240;PMS7003;11789;53.482;9.862;2023-02-18T13:51:16;4.50;3.50;2.25
23240;PMS7003;11789;53.482;9.862;2023-02-18T13:53:50;4.00;2.75;2.00
23240;PMS7003;11789;53.482;9.862;2023-02-18T13:56:20;5.00;3.00;2.00
23240;PMS7003;11789;53.482;9.862;2023-02-18T14:01:37;4.75;4.75;2.00
23240;PMS7003;11789;53.482;9.862;2023-02-18T14:17:42;3.75;3.50;1.50
23240;PMS7003;11789;53.482;9.862;2023-02-18T14:22:45;8.50;3.50;2.50
23240;PMS7003;11789;53.482;9.862;2023-02-18T14:27:50;8.50;6.50;4.00
23240;PMS7003;11789;53.482;9.862;2023-02-18T14:32:46;6.25;5.50;3.00
23240;PMS7003;11789;53.482;9.862;2023-02-18T14:35:20;6.75;4.50;3.00
23240;PMS7003;11789;53.482;9.862;2023-02-18T14:37:57;5.00;5.00;3.25
23240;PMS7003;11789;53.482;9.862;2023-02-18T14:40:52;12.50;5.00;2.75
23240;PMS7003;11789;53.482;9.862;2023-02-18T14:46:34;4.25;3.00;2.00
23240;PMS7003;11789;53.482;9.862;2023-02-18T14:51:45;4.00;2.50;2.25
23240;PMS7003;11789;53.482;9.862;2023-02-18T14:54:13;4.00;3.00;1.75
23240;PMS7003;11789;53.482;9.862;2023-02-18T14:56:48;4.00;2.50;1.00
23240;PMS7003;11789;53.482;9.862;2023-02-18T14:59:38;2.75;2.00;1.00
23240;PMS7003;11789;53.482;9.862;2023-02-18T15:02:22;1.00;1.00;1.00
23240;PMS7003;11789;53.482;9.862;2023-02-18T15:04:57;2.50;1.75;1.50
23240;PMS7003;11789;53.482;9.862;2023-02-18T15:07:36;2.75;2.75;2.00
23240;PMS7003;11789;53.482;9.862;2023-02-18T15:10:01;2.00;2.00;2.00
23240;PMS7003;11789;53.482;9.862;2023-02-18T15:12:27;4.00;2.00;2.00
23240;PMS7003;11789;53.482;9.862;2023-02-18T15:14:53;1.00;1.00;1.00
23240;PMS7003;11789;53.482;9.862;2023-02-18T15:17:26;2.00;2.00;1.25
23240;PMS7003;11789;53.482;9.862;2023-02-18T15:19:53;2.75;1.00;1.00
23240;PMS7003;11789;53.482;9.862;2023-02-18T15:22:22;2.00;2.00;1.00
23240;PMS7003;11789;53.482;9.862;2023-02-18T15:24:50;1.50;1.25;1.00
23240;PMS7003;11789;53.482;9.862;2023-02-18T15:27:21;3.00;3.00;2.00
23240;PMS7003;11789;53.482;9.862;2023-02-18T15:29:50;2.25;2.25;2.00
23240;PMS7003;11789;53.482;9.862;2023-02-18T15:32:21;2.00;2.00;2.00
23240;PMS7003;11789;53.482;9.862;2023-02-18T15:34:49;1.50;1.50;1.00
23240;PMS7003;11789;53.482;9.862;2023-02-18T15:37:17;2.00;2.00;2.00
23240;PMS7003;11789;53.482;9.862;2023-02-18T15:39:43;3.00;3.00;2.00
23240;PMS7003;11789;53.482;9.862;2023-02-18T15:45:02;2.75;2.50;2.00
23240;PMS7003;11789;53.482;9.862;2023-02-18T15:47:29;4.00;2.00;2.00
23240;PMS7003;11789;53.482;9.862;2023-02-18T15:49:57;2.50;2.50;2.00
23240;PMS7003;11789;53.482;9.862;2023-02-18T15:52:32;2.25;2.25;2.00
23240;PMS7003;11789;53.482;9.862;2023-02-18T15:55:03;3.00;3.00;2.50
23240;PMS7003;11789;53.482;9.862;2023-02-18T15:57:36;5.50;4.00;3.00
23240;PMS7003;11789;53.482;9.862;2023-02-18T16:00:09;3.50;3.50;3.00
23240;PMS7003;11789;53.482;9.862;2023-02-18T16:02:48;4.00;4.00;3.25
23240;PMS7003;11789;53.482;9.862;2023-02-18T16:05:16;1.00;1.00;1.00
23240;PMS7003;11789;53.482;9.862;2023-02-18T16:07:48;8.00;8.00;6.00
23240;PMS7003;11789;53.482;9.862;2023-02-18T16:10:23;6.00;4.75;4.25
23240;PMS7003;11789;53.482;9.862;2023-02-18T16:13:02;9.50;7.00;4.00
23240;PMS7003;11789;53.482;9.862;2023-02-18T16:15:39;5.00;5.00;4.00
23240;PMS7003;11789;53.482;9.862;2023-02-18T16:18:18;5.50;4.25;3.00
23240;PMS7003;11789;53.482;9.862;2023-02-18T16:20:56;4.25;4.25;4.00
23240;PMS7003;11789;53.482;9.862;2023-02-18T16:23:29;2.00;2.00;2.00
23240;PMS7003;11789;53.482;9.862;2023-02-18T16:28:56;8.75;8.50;5.00
23240;PMS7003;11789;53.482;9.862;2023-02-18T16:31:27;3.25;3.25;3.25
23240;PMS7003;11789;53.482;9.862;2023-02-18T16:33:52;10.75;10.75;9.00
23240;PMS7003;11789;53.482;9.862;2023-02-18T16:36:18;5.00;5.00;3.75
23240;PMS7003;11789;53.482;9.862;2023-02-18T16:38:46;3.00;3.00;3.00
23240;PMS7003;11789;53.482;9.862;2023-02-18T16:41:13;3.00;3.00;2.00
23240;PMS7003;11789;53.482;9.862;2023-02-18T16:43:39;7.75;7.75;5.25
23240;PMS7003;11789;53.482;9.862;2023-02-18T16:46:23;9.00;6.00;5.00
23240;PMS7003;11789;53.482;9.862;2023-02-18T16:48:49;5.00;5.00;4.25
23240;PMS7003;11789;53.482;9.862;2023-02-18T16:51:27;21.00;21.00;16.50
23240;PMS7003;11789;53.482;9.862;2023-02-18T16:53:55;3.00;3.00;2.25
23240;PMS7003;11789;53.482;9.862;2023-02-18T16:56:23;10.00;10.00;8.50
23240;PMS7003;11789;53.482;9.862;2023-02-18T16:58:50;5.50;4.00;3.00
23240;PMS7003;11789;53.482;9.862;2023-02-18T17:01:23;3.00;3.00;3.00
23240;PMS7003;11789;53.482;9.862;2023-02-18T17:03:51;3.00;3.00;2.00
23240;PMS7003;11789;53.482;9.862;2023-02-18T17:06:17;2.00;2.00;1.75